createdAt,value
2022-08-20T00:03:02.845Z,100262.81
2022-08-20T00:08:07.909Z,100269.63
2022-08-20T00:13:14.002Z,100248.59
2022-08-20T00:18:21.893Z,100244.44
2022-08-20T00:23:26.248Z,100251.97
2022-08-20T00:28:28.728Z,100252.16
2022-08-20T00:33:34.961Z,100229.91
2022-08-20T00:38:39.952Z,100237.69
2022-08-20T00:43:45.042Z,100239.03
2022-08-20T00:48:50.586Z,100233.28
2022-08-20T00:53:55.977Z,100236.28
2022-08-20T00:58:58.684Z,100243.28
2022-08-20T01:04:01.266Z,100232.63
2022-08-20T01:09:06.143Z,100242.19
2022-08-20T01:14:36.081Z,100244.28
2022-08-20T01:19:42.744Z,100243.09
2022-08-20T01:24:47.554Z,100237.25
2022-08-20T01:29:52.634Z,100238.06
2022-08-20T01:34:55.216Z,100244.47
2022-08-20T01:39:59.287Z,100247.13
2022-08-20T01:45:04.355Z,100248.22
2022-08-20T01:50:13.393Z,100238.09
2022-08-20T01:55:16.032Z,100249.81
2022-08-20T02:00:21.926Z,100246.22
2022-08-20T02:05:24.953Z,100245.97
2022-08-20T02:10:33.292Z,100260.34
2022-08-20T02:15:39.772Z,100261.53
2022-08-20T02:20:46.555Z,100264.31
2022-08-20T02:25:49.290Z,100263.16
2022-08-20T02:30:55.486Z,100256.72
2022-08-20T02:35:58.817Z,100260.22
2022-08-20T02:41:02.058Z,100266.22
2022-08-20T02:46:06.942Z,100267.66
2022-08-20T02:51:10.110Z,100268.81
2022-08-20T02:56:13.229Z,100265.59
2022-08-20T03:01:18.917Z,100261.19
2022-08-20T03:06:21.994Z,100257.94
2022-08-20T03:11:24.589Z,100268.56
2022-08-20T03:16:28.547Z,100264.31
2022-08-20T03:21:30.922Z,100262.75
2022-08-20T03:26:33.509Z,100259.81
2022-08-20T03:31:37.588Z,100265.75
2022-08-20T03:36:39.983Z,100261.44
2022-08-20T03:41:42.498Z,100258.88
2022-08-20T03:46:46.341Z,100268.00
2022-08-20T03:51:57.781Z,100265.91
2022-08-20T03:57:02.677Z,100272.22
2022-08-20T04:02:07.763Z,100267.66
2022-08-20T04:07:11.372Z,100278.16
2022-08-20T04:12:14.902Z,100270.41
2022-08-20T04:17:20.649Z,100269.88
2022-08-20T04:22:25.111Z,100269.25
2022-08-20T04:27:27.858Z,100267.16
2022-08-20T04:32:31.870Z,100268.50
2022-08-20T04:37:34.677Z,100276.41
2022-08-20T04:42:38.048Z,100281.03
2022-08-20T04:47:43.114Z,100283.00
2022-08-20T04:52:46.705Z,100291.41
2022-08-20T04:57:49.456Z,100285.88
2022-08-20T05:02:53.229Z,100297.06
2022-08-20T05:07:56.938Z,100283.47
2022-08-20T05:12:59.500Z,100300.72
2022-08-20T05:18:05.698Z,100304.78
2022-08-20T05:23:10.219Z,100303.63
2022-08-20T05:28:17.694Z,100306.56
2022-08-20T05:33:23.498Z,100314.34
2022-08-20T05:38:31.078Z,100315.59
2022-08-20T05:43:34.027Z,100316.06
2022-08-20T05:48:37.834Z,100322.44
2022-08-20T05:53:41.602Z,100315.81
2022-08-20T05:58:44.055Z,100312.47
2022-08-20T06:04:06.008Z,100325.63
2022-08-20T06:09:08.849Z,100323.44
2022-08-20T06:14:11.382Z,100317.66
2022-08-20T06:19:15.450Z,100318.34
2022-08-20T06:24:27.623Z,100324.03
2022-08-20T06:29:33.247Z,100327.94
2022-08-20T06:34:37.219Z,100327.56
2022-08-20T06:39:39.669Z,100331.66
2022-08-20T06:44:42.155Z,100331.00
2022-08-20T06:49:47.461Z,100330.69
2022-08-20T06:54:50.081Z,100346.38
2022-08-20T06:59:55.642Z,100349.06
2022-08-20T07:04:59.605Z,100350.75
2022-08-20T07:10:02.098Z,100353.25
2022-08-20T07:15:05.033Z,100363.06
2022-08-20T07:20:13.183Z,100367.63
2022-08-20T07:25:19.400Z,100372.56
2022-08-20T07:30:56.895Z,100373.97
2022-08-20T07:36:04.504Z,100384.41
2022-08-20T07:41:49.048Z,100380.19
2022-08-20T07:47:30.782Z,100361.03
2022-08-20T07:52:57.186Z,100376.75
2022-08-20T07:58:19.141Z,100351.53
2022-08-20T08:03:39.449Z,100383.03
2022-08-20T08:09:11.947Z,100354.84
2022-08-20T08:14:14.922Z,100354.75
2022-08-20T08:19:19.713Z,100370.25
2022-08-20T08:24:28.171Z,100387.53
2022-08-20T08:29:31.074Z,100378.31
2022-08-20T08:34:35.998Z,100391.53
2022-08-20T08:39:40.052Z,100384.53
2022-08-20T08:44:42.990Z,100399.56
2022-08-20T08:49:47.453Z,100399.38
2022-08-20T08:54:55.406Z,100396.38
2022-08-20T09:00:04.848Z,100408.34
2022-08-20T09:05:15.654Z,100397.78
2022-08-20T09:10:23.279Z,100403.25
2022-08-20T09:15:26.002Z,100410.94
2022-08-20T09:20:28.838Z,100405.88
2022-08-20T09:25:32.835Z,100405.78
2022-08-20T09:30:35.350Z,100406.41
2022-08-20T09:35:40.210Z,100412.94
2022-08-20T09:40:44.505Z,100403.88
2022-08-20T09:45:47.017Z,100405.72
2022-08-20T09:50:50.862Z,100406.53
2022-08-20T09:55:56.701Z,100404.72
2022-08-20T10:01:00.326Z,100397.63
2022-08-20T10:06:03.073Z,100402.06
2022-08-20T10:11:07.125Z,100398.41
2022-08-20T10:16:09.714Z,100399.53
2022-08-20T10:21:13.251Z,100399.31
2022-08-20T10:26:17.412Z,100406.09
2022-08-20T10:31:19.937Z,100408.00
2022-08-20T10:36:22.392Z,100416.28
2022-08-20T10:41:26.230Z,100416.53
2022-08-20T10:46:28.869Z,100411.94
2022-08-20T10:51:32.602Z,100408.91
2022-08-20T10:56:36.982Z,100407.44
2022-08-20T11:01:39.691Z,100414.59
2022-08-20T11:06:42.425Z,100407.22
2022-08-20T11:11:46.216Z,100417.38
2022-08-20T11:16:48.748Z,100418.16
2022-08-20T11:21:51.249Z,100412.81
2022-08-20T11:26:55.276Z,100409.84
2022-08-20T11:31:57.772Z,100420.34
2022-08-20T11:37:00.478Z,100423.72
2022-08-20T11:42:04.594Z,100415.91
2022-08-20T11:47:08.792Z,100434.25
2022-08-20T11:52:11.307Z,100437.53
2022-08-20T11:57:21.320Z,100437.50
2022-08-20T12:02:23.954Z,100430.28
2022-08-20T12:07:28.413Z,100426.97
2022-08-20T12:12:32.331Z,100422.72
2022-08-20T12:17:35.623Z,100429.50
2022-08-20T12:22:38.254Z,100421.19
2022-08-20T12:27:42.594Z,100426.59
2022-08-20T12:32:45.669Z,100419.34
2022-08-20T12:37:48.529Z,100415.72
2022-08-20T12:42:55.593Z,100412.53
2022-08-20T12:48:05.964Z,100421.50
2022-08-20T12:53:09.307Z,100421.25
2022-08-20T12:58:13.674Z,100417.84
2022-08-20T13:03:16.473Z,100424.41
2022-08-20T13:08:19.449Z,100423.16
2022-08-20T13:13:23.665Z,100429.38
2022-08-20T13:18:26.151Z,100430.91
2022-08-20T13:23:28.717Z,100433.75
2022-08-20T13:28:32.914Z,100435.25
2022-08-20T13:33:35.443Z,100433.56
2022-08-20T13:38:37.938Z,100432.59
2022-08-20T13:43:41.762Z,100421.78
2022-08-20T13:48:44.558Z,100422.16
2022-08-20T13:53:47.054Z,100415.81
2022-08-20T13:58:51.235Z,100415.97
2022-08-20T14:03:55.651Z,100417.81
2022-08-20T14:08:58.766Z,100406.78
2022-08-20T14:14:02.845Z,100406.66
2022-08-20T14:19:05.536Z,100402.03
2022-08-20T14:24:08.563Z,100396.00
2022-08-20T14:29:12.385Z,100402.78
2022-08-20T14:34:15.142Z,100409.34
2022-08-20T14:39:20.412Z,100406.63
2022-08-20T14:44:24.514Z,100402.25
2022-08-20T14:49:27.036Z,100403.25
2022-08-20T14:54:29.535Z,100408.84
2022-08-20T14:59:34.010Z,100420.50
2022-08-20T15:04:37.623Z,100410.44
2022-08-20T15:09:40.172Z,100407.28
2022-08-20T15:14:44.036Z,100404.56
2022-08-20T15:19:50.995Z,100401.91
2022-08-20T15:24:55.611Z,100401.19
2022-08-20T15:30:01.826Z,100393.78
2022-08-20T15:35:05.859Z,100390.50
2022-08-20T15:40:10.251Z,100398.06
2022-08-20T15:45:22.053Z,100394.50
2022-08-20T15:50:42.011Z,100395.59
2022-08-20T15:55:54.765Z,100402.38
2022-08-20T16:01:23.747Z,100401.63
2022-08-20T16:06:31.450Z,100400.56
2022-08-20T16:11:45.591Z,100398.16
2022-08-20T16:16:56.720Z,100418.31
2022-08-20T16:22:06.776Z,100415.78
2022-08-20T16:27:15.321Z,100436.34
2022-08-20T16:32:33.027Z,100436.13
2022-08-20T16:37:42.303Z,100448.06
2022-08-20T16:42:48.034Z,100468.56
2022-08-20T16:47:53.620Z,100465.72
2022-08-20T16:52:56.384Z,100463.28
2022-08-20T16:57:59.469Z,100469.75
2022-08-20T17:03:06.464Z,100471.72
2022-08-20T17:08:09.541Z,100466.19
2022-08-20T17:13:23.851Z,100471.91
2022-08-20T17:18:35.163Z,100480.31
2022-08-20T17:23:55.232Z,100468.56
2022-08-20T17:29:01.604Z,100473.81
2022-08-20T17:34:06.029Z,100483.13
2022-08-20T17:39:19.100Z,100482.91
2022-08-20T17:44:24.278Z,100473.13
2022-08-20T17:49:35.260Z,100470.75
2022-08-20T17:54:42.167Z,100470.56
2022-08-20T18:00:01.940Z,100475.88
2022-08-20T18:05:20.431Z,100486.28
2022-08-20T18:10:27.081Z,100484.72
2022-08-20T18:15:32.744Z,100484.47
2022-08-20T18:21:13.318Z,100492.72
2022-08-20T18:26:20.693Z,100498.41
2022-08-20T18:31:30.031Z,100498.06
2022-08-20T18:36:34.414Z,100494.47
2022-08-20T18:41:39.818Z,100492.28
2022-08-20T18:46:54.048Z,100491.88
2022-08-20T18:51:59.612Z,100503.88
2022-08-20T18:57:07.349Z,100500.28
2022-08-20T19:02:23.593Z,100500.03
2022-08-20T19:07:47.973Z,100505.06
2022-08-20T19:13:16.293Z,100513.22
2022-08-20T19:18:25.648Z,100512.97
2022-08-20T19:23:34.138Z,100510.97
2022-08-20T19:28:44.578Z,100512.41
2022-08-20T19:33:47.740Z,100513.94
2022-08-20T19:38:57.712Z,100510.91
2022-08-20T19:44:01.812Z,100520.19
2022-08-20T19:49:19.207Z,100520.53
2022-08-20T19:54:25.426Z,100522.66
2022-08-20T19:59:28.356Z,100525.31
2022-08-20T20:04:39.989Z,100524.66
2022-08-20T20:09:46.206Z,100521.28
2022-08-20T20:14:52.187Z,100529.88
2022-08-20T20:19:59.199Z,100535.78
2022-08-20T20:25:07.752Z,100534.03
2022-08-20T20:30:13.781Z,100533.03
2022-08-20T20:35:27.174Z,100531.47
2022-08-20T20:40:36.123Z,100529.22
2022-08-20T20:45:44.681Z,100521.47
2022-08-20T20:50:48.466Z,100523.63
2022-08-20T20:55:57.345Z,100521.53
2022-08-20T21:00:59.880Z,100517.38
2022-08-20T21:06:04.054Z,100520.50
2022-08-20T21:11:07.984Z,100531.63
2022-08-20T21:16:13.229Z,100529.78
2022-08-20T21:21:16.036Z,100522.34
2022-08-20T21:26:19.989Z,100531.13
2022-08-20T21:31:22.658Z,100528.41
2022-08-20T21:36:25.140Z,100526.94
2022-08-20T21:41:29.960Z,100527.34
2022-08-20T21:46:32.809Z,100531.59
2022-08-20T21:51:36.048Z,100529.28
2022-08-20T21:56:40.219Z,100533.22
2022-08-20T22:01:43.266Z,100524.63
2022-08-20T22:06:47.209Z,100522.00
2022-08-20T22:11:54.574Z,100520.03
2022-08-20T22:16:58.370Z,100522.69
2022-08-20T22:22:01.288Z,100517.75
2022-08-20T22:27:06.118Z,100508.97
2022-08-20T22:32:08.698Z,100518.91
2022-08-20T22:37:14.071Z,100521.06
2022-08-20T22:42:18.297Z,100520.63
2022-08-20T22:47:25.255Z,100522.88
2022-08-20T22:52:27.966Z,100523.50
2022-08-20T22:57:31.910Z,100518.19
2022-08-20T23:02:37.144Z,100525.34
2022-08-20T23:07:39.661Z,100526.63
2022-08-20T23:12:43.530Z,100518.25
2022-08-20T23:17:46.667Z,100518.63
2022-08-20T23:22:49.137Z,100517.97
2022-08-20T23:27:55.335Z,100510.66
2022-08-20T23:32:58.102Z,100517.94
2022-08-20T23:38:04.561Z,100508.38
2022-08-20T23:43:08.446Z,100506.53
2022-08-20T23:48:10.966Z,100506.69
2022-08-20T23:53:13.502Z,100511.25
2022-08-20T23:58:17.445Z,100514.75
